Time;durP1;ratioP1;P1;durP2;ratioP2;P2;SDS_P1;SDS_P2;PMS_P1;PMS_P2;Temp;Humidity;BMP_temperature;BMP_pressure;BME280_temperature;BME280_humidity;BME280_pressure;Samples;Min_cycle;Max_cycle;Signal;HPM_P1;HPM_P2
2022/08/27 00:01:15;;;;;;;24.60;22.70;;;21.50;49.80;;;;;;5048541;28;20437;-58
2022/08/27 00:03:43;;;;;;;23.07;21.40;;;21.40;51.30;;;;;;5069000;28;20588;-59
2022/08/27 00:06:12;;;;;;;22.00;20.20;;;21.40;51.60;;;;;;5054620;28;20441;-60
2022/08/27 00:08:39;;;;;;;24.00;22.10;;;21.40;51.70;;;;;;5054699;28;20488;-61
2022/08/27 00:11:05;;;;;;;24.93;23.03;;;21.50;51.70;;;;;;5054416;28;20435;-60
2022/08/27 00:13:31;;;;;;;24.37;22.37;;;21.60;51.10;;;;;;5055177;28;20437;-59
2022/08/27 00:15:57;;;;;;;24.07;22.27;;;21.60;50.90;;;;;;5054804;28;20639;-59
2022/08/27 00:18:23;;;;;;;24.10;22.30;;;21.60;51.10;;;;;;5051415;28;20278;-60
2022/08/27 00:20:49;;;;;;;25.40;23.17;;;21.60;50.90;;;;;;5054907;28;20536;-60
2022/08/27 00:23:15;;;;;;;23.63;21.70;;;21.50;50.80;;;;;;5072705;28;20659;-60
2022/08/27 00:25:41;;;;;;;24.67;22.67;;;21.60;50.90;;;;;;5054542;28;20433;-59
2022/08/27 00:28:07;;;;;;;24.30;22.30;;;21.60;51.00;;;;;;5055696;28;20180;-60
2022/08/27 00:30:33;;;;;;;23.30;21.60;;;21.60;50.40;;;;;;5072671;28;20440;-59
2022/08/27 00:32:58;;;;;;;24.03;22.03;;;21.60;50.70;;;;;;5051999;28;20433;-60
2022/08/27 00:35:25;;;;;;;25.30;23.40;;;21.70;51.30;;;;;;5053567;28;20252;-62
2022/08/27 00:37:51;;;;;;;23.50;21.20;;;21.70;51.60;;;;;;5054353;28;20641;-59
2022/08/27 00:40:20;;;;;;;23.93;21.87;;;21.80;51.30;;;;;;5072819;28;20433;-60
2022/08/27 00:42:46;;;;;;;23.40;21.70;;;21.80;51.10;;;;;;5053878;28;20207;-59
2022/08/27 00:45:15;;;;;;;22.53;20.53;;;21.80;50.50;;;;;;5050716;28;20431;-60
2022/08/27 00:47:55;;;;;;;22.47;20.67;;;21.80;50.40;;;;;;5051986;28;20433;-49
2022/08/27 00:50:43;;;;;;;25.30;23.00;;;21.80;49.50;;;;;;5048882;28;20440;-60
2022/08/27 00:53:32;;;;;;;22.63;21.10;;;21.80;49.30;;;;;;5064215;28;20456;-60
2022/08/27 00:56:17;;;;;;;22.93;21.23;;;21.80;48.60;;;;;;5054056;28;20821;-60
2022/08/27 00:58:53;;;;;;;25.57;23.07;;;21.70;49.30;;;;;;5051613;28;20960;-60
2022/08/27 01:01:23;;;;;;;24.10;21.80;;;21.50;50.40;;;;;;5054130;28;21026;-44
2022/08/27 01:03:51;;;;;;;22.20;20.70;;;21.60;51.50;;;;;;5053732;28;20465;-47
2022/08/27 01:06:19;;;;;;;20.97;19.43;;;21.60;51.50;;;;;;5047142;28;20434;-46
2022/08/27 01:08:56;;;;;;;22.23;20.63;;;21.70;51.90;;;;;;5051932;28;20520;-44
2022/08/27 01:11:24;;;;;;;23.10;21.40;;;21.70;51.90;;;;;;5053847;28;20436;-46
2022/08/27 01:13:50;;;;;;;22.80;20.90;;;21.80;52.00;;;;;;5053010;28;20812;-49
2022/08/27 01:16:22;;;;;;;22.60;21.00;;;21.80;52.70;;;;;;5053331;28;20433;-43
2022/08/27 01:18:49;;;;;;;24.03;22.23;;;21.80;53.10;;;;;;5072118;28;20532;-46
2022/08/27 01:21:20;;;;;;;21.87;20.13;;;21.80;53.30;;;;;;5053013;28;20433;-44
2022/08/27 01:24:05;;;;;;;23.30;21.50;;;21.80;53.10;;;;;;5052024;28;20981;-59
2022/08/27 01:26:31;;;;;;;23.97;21.77;;;21.80;53.20;;;;;;5064941;28;20429;-59
2022/08/27 01:28:58;;;;;;;23.23;21.53;;;21.70;52.90;;;;;;5053226;28;21217;-60
2022/08/27 01:31:23;;;;;;;24.83;22.67;;;21.60;53.30;;;;;;5053650;28;20437;-59
2022/08/27 01:33:59;;;;;;;24.50;22.43;;;21.40;55.40;;;;;;5051035;28;20433;-59
2022/08/27 01:36:25;;;;;;;24.00;22.17;;;21.40;55.60;;;;;;5050079;28;20263;-59
2022/08/27 01:38:50;;;;;;;24.43;22.33;;;21.50;55.00;;;;;;5050672;28;20934;-57
2022/08/27 01:41:16;;;;;;;23.70;22.00;;;21.50;54.40;;;;;;5050137;28;20183;-60
2022/08/27 01:43:42;;;;;;;25.30;23.30;;;21.60;54.00;;;;;;5051334;28;20325;-57
2022/08/27 01:46:08;;;;;;;23.90;22.00;;;21.60;53.50;;;;;;5050557;28;20517;-59
2022/08/27 01:48:33;;;;;;;23.80;21.80;;;21.60;53.50;;;;;;5053516;28;20245;-59
2022/08/27 01:50:59;;;;;;;23.40;21.70;;;21.60;53.20;;;;;;5052549;28;20180;-58
2022/08/27 01:53:25;;;;;;;24.50;22.57;;;21.70;53.10;;;;;;5052177;28;20187;-59
2022/08/27 01:55:52;;;;;;;25.67;23.60;;;21.70;53.10;;;;;;5052048;28;20191;-58
2022/08/27 01:58:20;;;;;;;24.73;22.83;;;21.70;53.00;;;;;;5053091;28;20518;-60
2022/08/27 02:00:50;;;;;;;24.40;22.40;;;21.70;52.70;;;;;;5068152;28;20433;-59
2022/08/27 02:03:17;;;;;;;24.93;22.93;;;21.60;52.80;;;;;;5049841;28;20825;-59
2022/08/27 02:05:44;;;;;;;24.80;22.70;;;21.60;53.00;;;;;;5050645;28;20436;-59
2022/08/27 02:08:10;;;;;;;24.93;22.93;;;21.60;53.00;;;;;;5048591;28;20481;-46
2022/08/27 02:10:38;;;;;;;24.93;22.63;;;21.60;52.60;;;;;;5045602;28;20427;-45
2022/08/27 02:13:05;;;;;;;25.53;23.43;;;21.70;52.30;;;;;;5045664;28;20498;-47
2022/08/27 02:15:33;;;;;;;25.47;23.57;;;21.70;53.30;;;;;;5051630;28;20437;-47
2022/08/27 02:17:59;;;;;;;25.07;22.97;;;21.70;52.50;;;;;;5050851;28;20470;-50
2022/08/27 02:20:25;;;;;;;26.70;24.77;;;21.60;53.70;;;;;;5044721;28;20436;-48
2022/08/27 02:22:50;;;;;;;27.27;24.97;;;21.40;54.30;;;;;;5050666;28;20461;-57
2022/08/27 02:25:19;;;;;;;26.70;24.53;;;21.40;55.60;;;;;;5046067;28;20172;-59
2022/08/27 02:27:47;;;;;;;26.53;24.17;;;21.50;54.50;;;;;;5050373;28;20515;-57
2022/08/27 02:30:15;;;;;;;26.33;24.23;;;21.50;53.30;;;;;;5046529;28;20416;-59
2022/08/27 02:32:41;;;;;;;24.07;22.27;;;21.50;52.10;;;;;;5052329;28;20476;-58
2022/08/27 02:35:08;;;;;;;26.73;24.47;;;21.20;55.00;;;;;;5053339;28;20485;-58
2022/08/27 02:37:35;;;;;;;27.03;24.73;;;21.10;55.60;;;;;;5052028;28;20191;-58
2022/08/27 02:40:00;;;;;;;26.97;24.67;;;20.90;56.60;;;;;;5052717;28;20451;-59
2022/08/27 02:42:26;;;;;;;27.07;24.87;;;20.80;57.10;;;;;;5048730;28;20992;-58
2022/08/27 02:44:53;;;;;;;26.57;24.57;;;20.80;57.40;;;;;;5045470;28;20179;-59
2022/08/27 02:47:19;;;;;;;25.53;23.13;;;20.90;56.80;;;;;;5049048;28;20489;-58
2022/08/27 02:49:45;;;;;;;27.40;25.00;;;21.10;56.50;;;;;;5069898;28;21028;-59
2022/08/27 02:52:10;;;;;;;26.93;24.53;;;21.10;55.40;;;;;;5052466;28;20285;-59
2022/08/27 02:54:36;;;;;;;27.83;25.67;;;21.20;54.60;;;;;;5053745;28;20172;-59
2022/08/27 02:57:02;;;;;;;25.67;23.87;;;21.20;53.80;;;;;;5034589;28;20639;-60
2022/08/27 02:59:27;;;;;;;28.03;25.23;;;21.10;54.80;;;;;;5068759;28;20675;-58
2022/08/27 03:01:53;;;;;;;26.57;24.27;;;21.10;55.10;;;;;;5049698;28;20191;-58
2022/08/27 03:04:19;;;;;;;26.07;23.77;;;21.20;54.80;;;;;;5045633;28;20236;-59
2022/08/27 03:06:46;;;;;;;28.27;25.47;;;21.20;53.10;;;;;;5043433;28;20168;-57
2022/08/27 03:09:11;;;;;;;24.67;22.63;;;21.10;54.30;;;;;;5051905;28;20462;-58
2022/08/27 03:11:38;;;;;;;24.93;22.77;;;21.20;54.70;;;;;;5069968;28;20519;-58
2022/08/27 03:14:04;;;;;;;27.40;24.77;;;21.20;54.30;;;;;;5052950;28;20607;-59
2022/08/27 03:16:34;;;;;;;25.40;23.13;;;21.10;52.80;;;;;;5048953;28;20516;-59
2022/08/27 03:19:00;;;;;;;27.70;25.20;;;21.00;53.60;;;;;;5052267;28;20441;-59
2022/08/27 03:21:27;;;;;;;25.23;23.13;;;21.10;53.60;;;;;;5049226;28;20912;-59
2022/08/27 03:23:52;;;;;;;24.80;22.87;;;21.10;53.30;;;;;;5051472;28;20207;-47
2022/08/27 03:26:19;;;;;;;25.60;23.47;;;21.10;52.50;;;;;;5039593;28;20414;-43
2022/08/27 03:28:45;;;;;;;24.97;23.10;;;21.00;52.00;;;;;;5047132;28;20313;-59
2022/08/27 03:31:25;;;;;;;25.27;23.30;;;21.00;53.20;;;;;;5044273;28;20434;-57
2022/08/27 03:33:56;;;;;;;25.27;23.17;;;21.10;52.80;;;;;;5050251;28;20437;-59
2022/08/27 03:36:22;;;;;;;24.60;22.67;;;21.20;52.40;;;;;;5047246;28;20449;-45
2022/08/27 03:38:48;;;;;;;24.83;22.83;;;21.30;52.10;;;;;;5052120;28;20440;-59
2022/08/27 03:41:16;;;;;;;26.50;24.40;;;21.30;51.90;;;;;;5052028;28;20199;-58
2022/08/27 03:43:42;;;;;;;26.03;23.83;;;21.40;51.80;;;;;;5053632;28;20212;-59
2022/08/27 03:46:08;;;;;;;25.03;23.10;;;21.40;51.70;;;;;;5051608;28;20425;-59
2022/08/27 03:48:34;;;;;;;22.80;21.10;;;21.50;51.80;;;;;;5052210;28;20191;-58
2022/08/27 03:51:08;;;;;;;22.90;21.20;;;21.30;50.50;;;;;;5047206;28;20172;-59
2022/08/27 03:53:36;;;;;;;22.50;20.73;;;21.30;50.60;;;;;;5074397;28;20192;-51
2022/08/27 03:56:03;;;;;;;22.83;21.17;;;21.30;51.20;;;;;;5056050;28;20842;-60
2022/08/27 03:58:29;;;;;;;22.00;20.60;;;21.10;51.10;;;;;;5073263;28;20506;-59
2022/08/27 04:00:55;;;;;;;21.13;19.83;;;21.10;51.40;;;;;;5048337;28;20421;-59
2022/08/27 04:03:21;;;;;;;23.97;22.17;;;21.20;51.40;;;;;;5055919;28;20211;-60
2022/08/27 04:05:52;;;;;;;25.90;23.87;;;21.30;51.60;;;;;;5053035;28;20441;-59
2022/08/27 04:08:17;;;;;;;24.80;22.90;;;21.30;51.20;;;;;;5054605;28;20184;-59
2022/08/27 04:10:43;;;;;;;25.83;23.73;;;21.40;49.20;;;;;;5052121;28;20785;-57
2022/08/27 04:13:09;;;;;;;26.17;24.07;;;21.40;48.40;;;;;;5073435;28;20194;-57
2022/08/27 04:15:34;;;;;;;26.17;23.90;;;21.40;48.10;;;;;;5055470;28;20192;-57
2022/08/27 04:18:01;;;;;;;26.03;24.00;;;21.20;49.40;;;;;;5055437;28;20992;-59
2022/08/27 04:20:27;;;;;;;26.53;24.43;;;21.20;48.90;;;;;;5049970;28;20271;-59
2022/08/27 04:22:52;;;;;;;28.57;25.97;;;21.10;50.20;;;;;;5045830;28;20457;-59
2022/08/27 04:25:18;;;;;;;28.33;25.90;;;21.10;49.30;;;;;;5049142;28;20430;-58
2022/08/27 04:27:44;;;;;;;29.73;27.30;;;21.10;49.50;;;;;;5054807;28;20635;-59
2022/08/27 04:30:14;;;;;;;31.20;28.30;;;21.20;49.40;;;;;;5047659;28;20172;-59
2022/08/27 04:32:40;;;;;;;29.17;26.57;;;21.20;49.60;;;;;;5054657;28;20191;-54
2022/08/27 04:35:06;;;;;;;30.90;28.07;;;21.10;50.50;;;;;;5073219;28;20479;-51
2022/08/27 04:37:32;;;;;;;32.63;29.93;;;21.10;50.80;;;;;;5052800;28;20278;-54
2022/08/27 04:39:58;;;;;;;32.30;29.60;;;21.10;50.30;;;;;;5069195;28;20528;-49
2022/08/27 04:42:24;;;;;;;30.70;28.00;;;21.10;50.60;;;;;;5050805;28;20184;-50
2022/08/27 04:44:52;;;;;;;32.37;29.03;;;21.10;50.40;;;;;;5051942;28;20477;-51
2022/08/27 04:47:18;;;;;;;32.93;29.80;;;20.90;51.60;;;;;;5055356;28;20429;-49
2022/08/27 04:49:43;;;;;;;33.87;30.40;;;20.90;52.20;;;;;;5053348;28;20794;-54
2022/08/27 04:52:09;;;;;;;32.93;29.47;;;20.90;52.00;;;;;;5055170;28;20524;-49
2022/08/27 04:54:35;;;;;;;34.40;31.20;;;20.90;52.80;;;;;;5054170;28;20188;-43
2022/08/27 04:57:03;;;;;;;32.60;29.57;;;20.90;52.60;;;;;;5047838;28;20205;-42
2022/08/27 04:59:30;;;;;;;33.43;30.03;;;21.00;52.30;;;;;;5053986;28;20179;-54
2022/08/27 05:01:56;;;;;;;30.90;27.60;;;21.00;52.50;;;;;;5053591;28;20454;-50
2022/08/27 05:04:21;;;;;;;30.20;27.60;;;21.10;52.10;;;;;;5050994;28;20470;-42
2022/08/27 05:06:49;;;;;;;32.73;30.07;;;21.10;51.40;;;;;;5052214;28;20183;-43
2022/08/27 05:09:16;;;;;;;31.40;28.70;;;21.20;51.40;;;;;;5054856;28;20179;-44
2022/08/27 05:11:42;;;;;;;32.70;29.70;;;21.20;51.00;;;;;;5052207;28;20436;-48
2022/08/27 05:14:12;;;;;;;33.17;30.03;;;21.20;51.40;;;;;;5050428;28;20440;-44
2022/08/27 05:16:38;;;;;;;32.20;29.50;;;21.30;50.50;;;;;;5062799;28;20932;-46
2022/08/27 05:19:07;;;;;;;33.03;30.13;;;21.30;50.60;;;;;;5054757;28;20994;-42
2022/08/27 05:21:35;;;;;;;31.77;29.10;;;21.20;51.00;;;;;;5046659;28;20977;-46
2022/08/27 05:24:04;;;;;;;33.87;30.87;;;21.10;51.40;;;;;;5040936;28;20514;-42
2022/08/27 05:26:32;;;;;;;33.83;30.83;;;21.20;51.40;;;;;;5054019;28;20492;-44
2022/08/27 05:28:58;;;;;;;33.93;30.60;;;21.10;51.40;;;;;;5053781;28;20574;-54
2022/08/27 05:31:24;;;;;;;32.83;29.60;;;20.90;53.20;;;;;;5047838;28;20518;-54
2022/08/27 05:33:50;;;;;;;32.87;29.93;;;20.80;53.80;;;;;;5050636;28;20813;-50
2022/08/27 05:36:25;;;;;;;34.20;31.13;;;20.90;52.90;;;;;;5044826;28;20506;-49
2022/08/27 05:38:52;;;;;;;32.40;29.40;;;20.90;53.60;;;;;;5051592;28;20234;-45
2022/08/27 05:41:26;;;;;;;31.00;28.40;;;20.90;53.20;;;;;;5048972;28;20415;-42
2022/08/27 05:43:53;;;;;;;32.10;29.20;;;21.00;53.50;;;;;;5037495;28;20592;-52
2022/08/27 05:46:22;;;;;;;32.53;29.80;;;21.10;52.30;;;;;;5049973;28;20819;-52
2022/08/27 05:48:49;;;;;;;32.60;29.70;;;21.10;51.60;;;;;;5050689;28;20851;-52
2022/08/27 05:51:28;;;;;;;34.40;30.93;;;21.00;52.80;;;;;;5053546;28;20429;-55
2022/08/27 05:53:55;;;;;;;33.00;29.70;;;21.00;52.70;;;;;;5071768;28;20433;-54
2022/08/27 05:56:25;;;;;;;31.70;28.67;;;21.00;53.00;;;;;;5046783;28;20438;-54
2022/08/27 06:01:46;;;;;;;31.60;28.83;;;21.10;52.60;;;;;;5051910;28;20452;-55
2022/08/27 06:04:13;;;;;;;31.67;28.67;;;21.20;51.90;;;;;;5034614;28;20549;-50
2022/08/27 06:06:42;;;;;;;32.03;29.47;;;21.00;52.20;;;;;;5027513;28;20865;-45
2022/08/27 06:09:10;;;;;;;32.57;29.57;;;21.00;53.10;;;;;;5039734;28;20485;-43
2022/08/27 06:11:36;;;;;;;31.73;28.60;;;21.10;51.90;;;;;;5036172;28;20451;-44
2022/08/27 06:14:03;;;;;;;30.87;28.17;;;21.00;52.50;;;;;;5041025;28;20457;-43
2022/08/27 06:16:28;;;;;;;28.60;26.07;;;21.10;52.20;;;;;;5038759;28;20806;-45
2022/08/27 06:18:56;;;;;;;33.83;30.63;;;21.20;51.70;;;;;;5039749;28;20511;-44
2022/08/27 06:21:22;;;;;;;33.53;30.43;;;21.20;51.50;;;;;;5039066;28;20856;-48
2022/08/27 06:23:48;;;;;;;33.13;30.10;;;21.20;51.50;;;;;;5038943;28;20481;-44
2022/08/27 06:26:16;;;;;;;32.07;29.27;;;21.20;51.30;;;;;;5033188;28;20465;-43
2022/08/27 06:28:42;;;;;;;33.20;30.20;;;21.30;51.10;;;;;;5038488;28;20483;-54
2022/08/27 06:31:20;;;;;;;31.83;28.87;;;21.30;50.70;;;;;;5024564;28;20463;-52
2022/08/27 06:33:46;;;;;;;31.27;28.47;;;21.20;51.20;;;;;;5028813;28;20219;-43
2022/08/27 06:36:15;;;;;;;32.00;29.20;;;21.20;51.50;;;;;;5038146;28;20524;-44
2022/08/27 06:38:43;;;;;;;32.30;29.43;;;21.20;51.50;;;;;;5038708;28;20834;-43
2022/08/27 06:41:12;;;;;;;32.30;29.50;;;21.30;51.60;;;;;;5033826;28;20489;-49
2022/08/27 06:43:40;;;;;;;31.33;28.70;;;21.20;51.50;;;;;;5035540;28;20488;-52
2022/08/27 06:46:08;;;;;;;31.53;28.73;;;21.20;52.00;;;;;;5053940;28;20453;-53
2022/08/27 06:48:34;;;;;;;32.03;28.73;;;21.20;51.50;;;;;;5041380;28;20551;-54
2022/08/27 06:51:07;;;;;;;31.40;28.50;;;21.30;51.60;;;;;;5050787;28;20433;-54
2022/08/27 06:53:32;;;;;;;31.40;28.50;;;21.30;51.50;;;;;;5067059;28;20529;-54
2022/08/27 06:55:58;;;;;;;32.20;28.57;;;21.30;50.90;;;;;;5054188;28;20826;-57
2022/08/27 06:58:23;;;;;;;30.47;27.97;;;21.40;50.80;;;;;;5053792;28;20174;-41
2022/08/27 07:00:50;;;;;;;31.73;28.53;;;21.40;51.10;;;;;;5050941;28;20190;-41
2022/08/27 07:03:16;;;;;;;33.33;30.03;;;21.40;51.50;;;;;;5047340;28;20195;-43
2022/08/27 07:05:41;;;;;;;31.33;28.37;;;21.40;51.80;;;;;;5052388;28;20475;-45
2022/08/27 07:08:08;;;;;;;30.90;27.70;;;21.40;50.90;;;;;;5052585;28;20229;-45
2022/08/27 07:10:35;;;;;;;29.83;27.20;;;21.40;51.10;;;;;;5045729;28;20175;-50
2022/08/27 07:13:00;;;;;;;32.10;29.20;;;21.40;51.60;;;;;;5053709;28;20429;-47
2022/08/27 07:15:27;;;;;;;31.93;28.80;;;21.40;51.60;;;;;;5048450;28;20774;-59
2022/08/27 07:17:53;;;;;;;27.90;25.60;;;21.40;51.60;;;;;;5049471;28;20171;-58
2022/08/27 07:20:19;;;;;;;30.93;28.13;;;21.40;51.70;;;;;;5056964;28;20434;-49
2022/08/27 07:22:46;;;;;;;30.20;27.70;;;21.40;51.60;;;;;;5054681;28;20460;-46
2022/08/27 07:25:18;;;;;;;32.07;29.17;;;21.40;51.70;;;;;;5043745;28;20769;-49
2022/08/27 07:27:44;;;;;;;27.30;25.20;;;21.40;51.70;;;;;;5052543;28;20519;-60
2022/08/27 07:30:11;;;;;;;29.67;27.07;;;21.40;51.50;;;;;;5052027;28;20985;-60
2022/08/27 07:32:37;;;;;;;29.03;26.73;;;21.50;51.00;;;;;;5050466;28;20179;-49
2022/08/27 07:35:08;;;;;;;29.77;27.27;;;21.50;50.90;;;;;;5053515;28;20453;-58
2022/08/27 07:37:37;;;;;;;29.67;26.83;;;21.50;51.70;;;;;;5045526;28;20418;-48
2022/08/27 07:40:13;;;;;;;30.60;27.67;;;21.40;51.70;;;;;;5040440;28;20905;-44
2022/08/27 07:45:25;;;;;;;29.43;26.90;;;21.50;51.80;;;;;;5059491;28;20445;-44
2022/08/27 07:47:51;;;;;;;28.33;26.13;;;21.50;51.40;;;;;;5035474;28;20921;-46
2022/08/27 07:50:17;;;;;;;30.73;26.47;;;21.50;51.20;;;;;;5037277;28;20411;-47
2022/08/27 07:52:43;;;;;;;30.07;27.30;;;21.60;50.80;;;;;;5037319;28;20876;-52
2022/08/27 07:55:13;;;;;;;33.00;27.60;;;21.60;50.50;;;;;;5036785;28;20453;-49
2022/08/27 07:57:39;;;;;;;27.73;25.20;;;21.60;50.30;;;;;;5036983;28;20172;-47
2022/08/27 08:00:09;;;;;;;30.17;26.97;;;21.50;51.50;;;;;;5037117;28;20418;-58
2022/08/27 08:02:35;;;;;;;29.03;26.23;;;21.60;50.80;;;;;;5037223;28;20257;-60
2022/08/27 08:05:01;;;;;;;29.30;26.17;;;21.60;51.00;;;;;;5037135;28;20891;-60
2022/08/27 08:07:27;;;;;;;27.50;24.97;;;21.60;51.20;;;;;;5037031;28;20425;-47
2022/08/27 08:09:53;;;;;;;28.23;25.73;;;21.60;51.80;;;;;;5036775;28;20183;-52
2022/08/27 08:12:19;;;;;;;29.50;26.77;;;21.60;51.80;;;;;;5054880;28;20406;-49
2022/08/27 08:14:45;;;;;;;27.83;25.40;;;21.60;52.30;;;;;;5036907;28;20425;-46
2022/08/27 08:17:12;;;;;;;28.80;26.30;;;21.60;51.80;;;;;;5036885;28;21056;-45
2022/08/27 08:19:41;;;;;;;29.17;26.57;;;21.60;51.90;;;;;;5036840;28;20411;-47
2022/08/27 08:22:07;;;;;;;26.30;23.90;;;21.60;52.70;;;;;;5036510;28;20513;-59
2022/08/27 08:24:35;;;;;;;28.90;26.40;;;21.60;52.30;;;;;;5035270;28;20489;-60
2022/08/27 08:27:01;;;;;;;28.70;25.60;;;21.60;52.40;;;;;;5036595;28;20436;-61
2022/08/27 08:29:26;;;;;;;28.40;25.87;;;21.70;52.60;;;;;;5036657;28;20422;-60
2022/08/27 08:31:52;;;;;;;28.53;25.90;;;21.70;52.90;;;;;;5036422;28;20179;-61
2022/08/27 08:34:18;;;;;;;28.03;25.20;;;21.70;52.20;;;;;;5036519;28;20632;-47
2022/08/27 08:36:44;;;;;;;28.80;26.00;;;21.70;53.00;;;;;;5036668;28;20640;-50
2022/08/27 08:39:10;;;;;;;30.10;27.10;;;21.70;52.70;;;;;;5036418;28;20406;-46
2022/08/27 08:41:43;;;;;;;29.63;27.13;;;21.60;52.40;;;;;;5036202;28;20425;-45
2022/08/27 08:44:30;;;;;;;31.93;28.63;;;21.60;52.80;;;;;;5036503;28;20672;-44
2022/08/27 08:47:05;;;;;;;30.47;27.67;;;21.50;53.20;;;;;;5036315;28;20406;-59
2022/08/27 08:50:01;;;;;;;28.70;25.90;;;21.50;53.60;;;;;;5036362;28;20417;-59
2022/08/27 08:52:48;;;;;;;29.40;26.63;;;21.50;53.80;;;;;;5025698;28;20410;-60
2022/08/27 08:55:13;;;;;;;31.83;27.20;;;21.50;53.80;;;;;;5036141;28;20461;-57
2022/08/27 08:57:50;;;;;;;33.57;28.00;;;21.50;53.90;;;;;;5036232;28;20442;-60
2022/08/27 09:00:16;;;;;;;32.07;27.60;;;21.60;54.30;;;;;;5035992;28;20643;-59
2022/08/27 09:02:49;;;;;;;27.87;25.50;;;21.60;54.20;;;;;;5035997;28;20442;-44
2022/08/27 09:05:15;;;;;;;31.13;27.10;;;21.60;54.10;;;;;;5036056;28;20176;-46
2022/08/27 09:08:01;;;;;;;32.10;28.70;;;21.60;53.40;;;;;;5053935;28;20410;-44
2022/08/27 09:10:53;;;;;;;29.93;27.03;;;21.60;53.30;;;;;;5035839;28;20279;-45
2022/08/27 09:13:31;;;;;;;29.50;26.60;;;21.60;53.30;;;;;;5025352;28;20507;-47
2022/08/27 09:15:58;;;;;;;28.27;25.47;;;21.50;53.70;;;;;;5035923;28;20750;-44
2022/08/27 09:18:24;;;;;;;28.37;25.87;;;21.50;54.00;;;;;;5035958;28;20427;-48
2022/08/27 09:20:59;;;;;;;26.03;23.53;;;21.50;54.30;;;;;;5035661;28;20414;-46
2022/08/27 09:23:36;;;;;;;24.93;22.53;;;21.50;54.00;;;;;;5035776;28;20457;-45
2022/08/27 09:26:01;;;;;;;24.30;22.40;;;21.50;54.20;;;;;;5035547;28;20758;-43
2022/08/27 09:31:22;;;;;;;23.50;21.57;;;21.60;53.80;;;;;;5053567;28;20243;-48
2022/08/27 09:33:47;;;;;;;23.03;21.13;;;21.60;54.00;;;;;;5035450;28;20410;-45
2022/08/27 09:36:15;;;;;;;23.33;21.33;;;21.60;54.90;;;;;;5035025;28;20484;-49
2022/08/27 09:38:52;;;;;;;24.07;21.67;;;21.50;57.00;;;;;;5035429;28;20199;-52
2022/08/27 09:41:28;;;;;;;21.73;20.03;;;21.40;58.60;;;;;;5035364;28;20489;-49
2022/08/27 09:43:59;;;;;;;20.30;18.87;;;21.40;57.60;;;;;;5035224;28;20829;-49
2022/08/27 09:46:26;;;;;;;18.93;17.63;;;21.40;56.20;;;;;;5035247;28;20476;-49
2022/08/27 09:48:51;;;;;;;20.57;19.07;;;21.50;56.50;;;;;;5035166;28;20477;-45
2022/08/27 09:51:22;;;;;;;18.93;17.50;;;21.50;56.50;;;;;;5052877;28;20443;-47
2022/08/27 09:53:58;;;;;;;18.83;17.57;;;21.50;56.70;;;;;;5035076;28;20606;-46
2022/08/27 09:56:32;;;;;;;19.90;18.13;;;21.50;56.90;;;;;;5035270;28;20422;-44
2022/08/27 09:59:23;;;;;;;19.60;18.00;;;21.50;57.10;;;;;;5034920;28;20420;-45
2022/08/27 10:01:57;;;;;;;17.97;16.77;;;21.60;56.80;;;;;;5034754;28;20451;-44
2022/08/27 10:04:37;;;;;;;18.27;17.13;;;21.60;55.80;;;;;;5034946;28;20471;-43
2022/08/27 10:07:30;;;;;;;17.80;16.67;;;21.60;56.10;;;;;;5034858;28;20786;-44
2022/08/27 10:10:17;;;;;;;18.33;17.13;;;21.60;55.80;;;;;;5034473;28;20494;-46
2022/08/27 10:12:53;;;;;;;17.20;15.97;;;21.50;55.90;;;;;;5034795;28;20417;-44
2022/08/27 10:15:22;;;;;;;19.23;18.03;;;21.50;56.00;;;;;;5034826;28;20421;-45
2022/08/27 10:17:54;;;;;;;19.07;17.57;;;21.50;56.10;;;;;;5034560;28;20493;-44
2022/08/27 10:20:48;;;;;;;18.03;16.73;;;21.50;56.70;;;;;;5034518;28;20426;-46
2022/08/27 10:23:44;;;;;;;19.23;17.83;;;21.50;56.30;;;;;;5034598;28;20462;-44
2022/08/27 10:26:15;;;;;;;19.77;18.27;;;21.50;55.60;;;;;;5034725;28;20406;-45
2022/08/27 10:28:47;;;;;;;17.93;16.73;;;21.50;56.10;;;;;;5034534;28;20503;-56
2022/08/27 10:31:21;;;;;;;18.20;16.90;;;21.60;56.30;;;;;;5034241;28;21043;-45
2022/08/27 10:34:11;;;;;;;21.60;20.00;;;21.50;55.80;;;;;;5052338;28;20414;-47
2022/08/27 10:36:52;;;;;;;22.10;20.37;;;21.50;55.80;;;;;;5034291;28;20473;-45
2022/08/27 10:39:51;;;;;;;20.13;18.73;;;21.60;55.20;;;;;;5034357;28;20786;-47
2022/08/27 10:42:45;;;;;;;20.63;19.03;;;21.60;54.50;;;;;;5034282;28;20418;-47
2022/08/27 10:45:34;;;;;;;20.47;18.97;;;21.60;55.30;;;;;;5034276;28;20509;-50
2022/08/27 10:48:15;;;;;;;21.60;19.90;;;21.60;55.90;;;;;;4996737;28;20419;-47
2022/08/27 10:51:11;;;;;;;20.07;18.57;;;21.60;57.90;;;;;;5034046;28;20481;-44
2022/08/27 10:53:42;;;;;;;20.50;18.93;;;21.60;55.50;;;;;;5034145;28;20514;-45
2022/08/27 10:56:27;;;;;;;22.53;20.70;;;21.70;55.20;;;;;;5033935;28;20415;-44
2022/08/27 10:59:11;;;;;;;20.37;18.67;;;21.70;53.90;;;;;;5034092;28;20410;-45
2022/08/27 11:01:49;;;;;;;21.97;20.37;;;21.70;54.00;;;;;;5034060;28;20425;-44
2022/08/27 11:04:21;;;;;;;21.50;19.80;;;21.70;55.20;;;;;;5033871;28;20468;-44
2022/08/27 11:07:16;;;;;;;22.77;21.10;;;21.70;55.80;;;;;;5033868;28;20414;-44
2022/08/27 11:09:48;;;;;;;23.53;21.70;;;21.70;55.90;;;;;;5033893;28;20421;-45
2022/08/27 11:12:20;;;;;;;22.70;20.60;;;21.60;54.80;;;;;;5033941;28;20501;-43
2022/08/27 11:15:12;;;;;;;22.30;20.57;;;21.60;55.40;;;;;;5033736;28;20414;-43
2022/08/27 11:17:55;;;;;;;22.00;19.97;;;21.70;56.00;;;;;;5024965;28;20418;-44
2022/08/27 11:20:29;;;;;;;24.37;21.97;;;21.70;56.60;;;;;;5033709;28;20953;-46
2022/08/27 11:23:20;;;;;;;22.97;21.17;;;21.70;55.90;;;;;;5033703;28;20454;-50
2022/08/27 11:26:02;;;;;;;24.27;22.40;;;21.70;54.90;;;;;;5024526;28;20411;-49
2022/08/27 11:28:43;;;;;;;22.40;20.80;;;21.80;54.80;;;;;;5033844;28;20410;-50
2022/08/27 11:31:23;;;;;;;22.00;20.30;;;21.80;54.80;;;;;;5033706;28;20414;-45
2022/08/27 11:34:13;;;;;;;20.43;18.80;;;21.80;55.10;;;;;;5033678;28;20793;-45
2022/08/27 11:36:44;;;;;;;21.17;19.47;;;21.80;54.80;;;;;;5033663;28;20425;-46
2022/08/27 11:39:19;;;;;;;22.17;20.37;;;21.70;54.50;;;;;;5033807;28;20417;-45
2022/08/27 11:41:48;;;;;;;23.13;21.20;;;21.70;54.80;;;;;;5033459;28;20410;-46
2022/08/27 11:44:17;;;;;;;22.53;20.70;;;21.60;55.00;;;;;;5033720;28;20490;-48
2022/08/27 11:46:50;;;;;;;24.20;22.10;;;21.70;56.10;;;;;;5033639;28;20976;-48
2022/08/27 11:49:55;;;;;;;23.40;21.50;;;21.70;55.60;;;;;;5033639;28;20442;-48
2022/08/27 11:52:25;;;;;;;22.27;20.43;;;21.70;55.50;;;;;;5032963;28;20422;-48
2022/08/27 11:55:24;;;;;;;21.73;20.03;;;21.60;55.60;;;;;;5033488;28;20414;-45
2022/08/27 11:58:04;;;;;;;24.10;22.30;;;21.70;55.70;;;;;;5033454;28;20957;-46
2022/08/27 12:00:32;;;;;;;25.20;23.10;;;21.70;55.60;;;;;;5036875;28;20419;-45
2022/08/27 12:03:21;;;;;;;24.07;21.93;;;21.60;56.80;;;;;;5054929;28;20457;-52
2022/08/27 12:05:49;;;;;;;25.27;23.17;;;21.60;58.00;;;;;;5037005;28;20417;-47
2022/08/27 12:08:20;;;;;;;22.57;20.87;;;21.60;57.10;;;;;;5036900;28;20415;-47
2022/08/27 12:11:01;;;;;;;24.80;22.80;;;21.70;56.80;;;;;;5036809;28;20410;-47
2022/08/27 12:13:36;;;;;;;24.27;22.43;;;21.70;56.50;;;;;;5036899;28;20418;-45
2022/08/27 12:16:17;;;;;;;24.57;22.27;;;21.80;55.70;;;;;;5036846;28;20422;-52
2022/08/27 12:19:01;;;;;;;24.07;22.07;;;21.80;55.00;;;;;;5036903;28;20422;-48
2022/08/27 12:21:50;;;;;;;24.43;22.43;;;21.80;54.80;;;;;;5054335;28;20461;-51
2022/08/27 12:24:29;;;;;;;25.43;23.27;;;21.80;54.30;;;;;;5036726;28;20458;-50
2022/08/27 12:27:01;;;;;;;23.23;21.40;;;21.90;54.40;;;;;;5036813;28;20422;-48
2022/08/27 12:29:49;;;;;;;24.10;22.30;;;21.80;54.40;;;;;;5036787;28;20410;-49
2022/08/27 12:32:28;;;;;;;26.60;24.30;;;21.90;54.70;;;;;;5036627;28;20460;-45
2022/08/27 12:34:57;;;;;;;24.13;22.23;;;21.90;53.60;;;;;;5036432;28;20441;-48
2022/08/27 12:37:27;;;;;;;25.03;23.07;;;21.90;53.70;;;;;;5036600;28;20433;-51
2022/08/27 12:39:56;;;;;;;24.63;22.57;;;21.90;54.00;;;;;;5036276;28;20441;-49
2022/08/27 12:42:22;;;;;;;25.80;23.30;;;21.90;54.60;;;;;;5036705;28;20415;-45
2022/08/27 12:44:54;;;;;;;25.10;23.10;;;22.00;54.60;;;;;;5036741;28;20451;-44
2022/08/27 12:47:20;;;;;;;25.07;22.97;;;22.00;54.70;;;;;;5036582;28;20625;-44
2022/08/27 12:49:51;;;;;;;25.67;23.37;;;22.00;53.40;;;;;;5036421;28;20420;-47
2022/08/27 12:52:23;;;;;;;25.50;23.27;;;22.00;53.10;;;;;;5036447;28;20558;-50
2022/08/27 12:55:11;;;;;;;25.33;23.30;;;22.00;52.60;;;;;;5035665;28;20418;-44